Terminal Aerodrome Forecast
Issued by NWS Northern Indiana

Home | Current Version | Previous Version | Text Only | Print | Product List | Glossary On
Versions: 1 2 3 4 5 6 7 8 9 10 11 12 13 14 15 16
020
FTUS43 KIWX 080527
TAFFWA
TAF
KFWA 080527Z 0806/0906 25010KT P6SM SCT040 BKN150
     FM081400 26009KT 5SM BR OVC025
     FM081800 29012G17KT 3SM -SHSN OVC025
      TEMPO 0819/0823 2SM -SHSN OVC020
     FM090000 29011KT P6SM VCSH OVC025=

USA.gov is the U.S. government's official web portal to all federal, state and local government web resources and services.